Latest Weather Observations for Brisbane

IDQ60901

Issued at 7:25 am EST Monday 24 November 2014 (issued every 10 minutes, with the page automatically refreshed every 10 minutes)

About weather observations | Map of Brisbane area stations | Latest observations for Brisbane area | Other Formats
Station Details ID: 040913 Name: BRISBANE Lat: -27.48 Lon: 153.04 Height: 8.13 m
Data from the previous 72 hours. | See also: Recent months at Brisbane
Date/Time
EST
Tmp

°C
App
Tmp
°C
Dew
Point
°C
Rel
Hum
%
Delta-T

°C
Wind Press
QNH
hPa
Press
MSL
hPa
Rain
since
9 am
mm
Dir
 
Spd
km/h
Gust
km/h
Spd
kts
Gust
kts
24/07:00am 25.8 28.1 19.9 70 3.8 NNW 7 20 4 11 1017.9 1017.9 0.0
24/06:30am 25.0 27.4 19.6 72 3.5 N 6 11 3 6 1017.9 1017.9 0.0
24/06:00am 24.0 26.1 19.3 75 3.0 N 7 13 4 7 1017.8 1017.8 0.0
24/05:30am 23.1 25.8 19.5 80 2.3 N 4 6 2 3 1017.5 1017.5 0.0
24/05:00am 22.7 25.3 19.3 81 2.2 NNW 4 9 2 5 1017.1 1017.1 0.0
24/04:30am 22.9 25.2 19.5 81 2.2 NNW 6 13 3 7 1016.8 1016.8 0.0
24/04:00am 23.0 26.2 19.8 82 2.1 N 2 6 1 3 1016.6 1016.6 0.0
24/03:30am 23.2 25.8 20.0 82 2.1 N 6 13 3 7 1016.4 1016.4 0.0
24/03:00am 23.4 25.8 20.0 81 2.2 N 7 19 4 10 1016.3 1016.3 0.0
24/02:30am 23.6 26.2 20.1 81 2.3 N 6 15 3 8 1016.4 1016.4 0.0
24/02:00am 23.6 26.1 20.3 82 2.1 N 7 19 4 10 1016.3 1016.3 0.0
24/01:30am 23.9 26.8 20.6 82 2.2 N 6 15 3 8 1016.3 1016.3 0.0
24/01:00am 24.0 26.6 20.5 81 2.3 N 7 17 4 9 1016.4 1016.4 0.0
24/12:30am 24.3 26.7 20.8 81 2.3 N 9 19 5 10 1016.5 1016.5 0.0
24/12:00am 24.4 27.1 20.7 80 2.4 NNE 7 17 4 9 1016.8 1016.8 0.0
 
Date/Time
EST
Tmp

°C
App
Tmp
°C
Dew
Point
°C
Rel
Hum
%
Delta-T

°C
Wind Press
QNH
hPa
Press
MSL
hPa
Rain
since
9 am
mm
Dir
 
Spd
km/h
Gust
km/h
Spd
kts
Gust
kts
23/11:30pm 24.5 27.3 20.8 80 2.4 NNE 7 19 4 10 1016.8 1016.8 0.0
23/11:00pm 24.6 26.9 20.7 79 2.5 N 9 22 5 12 1016.7 1016.7 0.0
23/10:30pm 24.7 26.9 20.4 77 2.8 N 9 20 5 11 1016.8 1016.8 0.0
23/10:00pm 24.8 27.7 20.7 78 2.7 N 6 13 3 7 1016.6 1016.6 0.0
23/09:30pm 25.1 27.1 20.8 77 2.8 NNE 11 22 6 12 1016.6 1016.6 0.0
23/09:00pm 25.1 27.0 20.6 76 2.9 NNE 11 19 6 10 1016.5 1016.5 0.0
23/08:30pm 25.2 26.9 20.2 74 3.3 NNE 11 19 6 10 1016.2 1016.2 0.0
23/08:00pm 25.4 27.5 20.2 73 3.4 NNE 9 26 5 14 1016.0 1016.0 0.0
23/07:30pm 25.6 26.8 19.9 70 3.7 NNE 13 28 7 15 1015.3 1015.3 0.0
23/07:00pm 25.9 27.4 19.8 69 4.0 NE 11 24 6 13 1015.2 1015.2 0.0
23/06:30pm 26.1 27.5 19.5 67 4.3 NE 11 20 6 11 1014.8 1014.8 0.0
23/06:00pm 26.3 27.6 19.2 65 4.6 NE 11 26 6 14 1014.3 1014.3 0.0
23/05:30pm 26.7 27.0 18.8 62 5.1 NNE 15 28 8 15 1013.8 1013.8 0.0
23/05:00pm 27.2 28.3 18.8 60 5.4 NE 11 20 6 11 1013.6 1013.6 0.0
23/04:30pm 27.9 28.9 18.6 57 6.0 NE 11 24 6 13 1013.8 1013.8 0.0
23/04:00pm 28.2 28.2 18.0 54 6.5 NE 15 28 8 15 1014.0 1014.0 0.0
23/03:30pm 29.2 28.9 18.3 51 7.0 NNE 17 30 9 16 1013.7 1013.7 0.0
23/03:00pm 29.2 29.9 18.9 53 6.7 NNE 13 24 7 13 1014.2 1014.2 0.0
23/02:30pm 29.5 30.4 19.2 54 6.7 NNE 13 28 7 15 1014.4 1014.4 0.0
23/02:00pm 29.5 30.7 19.8 56 6.4 NNE 13 22 7 12 1014.8 1014.8 0.0
23/01:30pm 29.7 30.8 20.5 57 6.1 NE 15 28 8 15 1014.9 1014.9 0.0
23/01:00pm 29.8 31.2 20.4 57 6.2 NNE 13 26 7 14 1015.4 1015.4 0.0
23/12:30pm 29.7 31.6 20.5 57 6.1 NNE 11 22 6 12 1015.7 1015.7 0.0
23/12:00pm 29.5 30.7 20.6 58 5.9 NE 15 30 8 16 1016.0 1016.0 0.0
23/11:30am 29.8 32.3 21.7 61 5.5 NNE 11 20 6 11 1016.7 1016.7 0.0
23/11:00am 29.6 31.6 21.5 61 5.4 NE 13 22 7 12 1017.1 1017.1 0.0
23/10:30am 30.0 33.2 22.4 63 5.2 NE 9 17 5 9 1017.3 1017.3 0.0
23/10:00am 29.4 31.6 21.1 61 5.5 NE 11 20 6 11 1017.3 1017.3 0.0
23/09:30am 29.5 31.0 19.8 56 6.4 NE 11 20 6 11 1017.5 1017.5 0.0
23/09:00am 29.5 32.3 20.4 58 6.0 NNE 6 15 3 8 1017.8 1017.8 0.0
23/08:30am 28.4 30.7 19.9 60 5.6 NNE 7 17 4 9 1017.7 1017.7 0.0
23/08:00am 27.9 30.9 21.2 67 4.4 N 7 17 4 9 1017.7 1017.7 0.0
23/07:30am 26.5 29.3 20.8 71 3.8 N 7 13 4 7 1017.9 1017.9 0.0
23/07:00am 26.1 29.2 21.1 74 3.3 NNW 6 11 3 6 1017.6 1017.6 0.0
23/06:30am 25.3 28.2 21.0 77 2.8 NNW 7 13 4 7 1017.4 1017.4 0.0
23/06:00am 24.8 27.9 21.1 80 2.4 NNW 6 13 3 7 1016.8 1016.8 0.0
23/05:30am 24.3 27.5 21.2 83 2.0 N 6 15 3 8 1016.3 1016.3 0.0
23/05:00am 24.1 27.5 21.0 83 2.0 N 4 7 2 4 1016.1 1016.1 0.0
23/04:30am 24.1 27.2 21.0 83 2.0 N 6 11 3 6 1015.7 1015.7 0.0
23/04:00am 24.2 27.7 21.1 83 2.0 N 4 13 2 7 1015.2 1015.2 0.0
23/03:30am 24.4 27.9 21.1 82 2.2 N 4 11 2 6 1014.8 1014.8 0.0
23/03:00am 24.4 27.5 21.1 82 2.2 N 6 13 3 7 1014.5 1014.5 0.0
23/02:30am 24.4 27.5 21.1 82 2.2 N 6 9 3 5 1014.4 1014.4 0.0
23/02:00am 24.7 27.7 21.2 81 2.3 NNE 7 17 4 9 1014.4 1014.4 0.0
23/01:30am 24.8 27.5 21.3 81 2.3 NNE 9 26 5 14 1014.4 1014.4 0.0
23/01:00am 24.9 28.7 21.6 82 2.2 N 4 11 2 6 1014.6 1014.6 0.0
23/12:30am 25.1 28.4 21.8 82 2.2 NNE 7 13 4 7 1014.8 1014.8 0.0
23/12:00am 25.1 28.4 21.8 82 2.2 NNE 7 17 4 9 1014.9 1014.9 0.0
 
Date/Time
EST
Tmp

°C
App
Tmp
°C
Dew
Point
°C
Rel
Hum
%
Delta-T

°C
Wind Press
QNH
hPa
Press
MSL
hPa
Rain
since
9 am
mm
Dir
 
Spd
km/h
Gust
km/h
Spd
kts
Gust
kts
22/11:30pm 25.2 28.1 21.7 81 2.3 NNE 9 19 5 10 1015.0 1015.0 0.0
22/11:00pm 25.3 28.1 21.6 80 2.5 NNE 9 19 5 10 1015.1 1015.1 0.0
22/10:30pm 25.4 28.2 21.5 79 2.6 NNE 9 19 5 10 1015.3 1015.3 0.0
22/10:00pm 25.5 28.3 21.6 79 2.6 NNE 9 17 5 9 1015.1 1015.1 0.0
22/09:30pm 25.5 28.6 21.4 78 2.7 NNE 7 20 4 11 1014.8 1014.8 0.0
22/09:00pm 25.6 28.0 21.5 78 2.7 NNE 11 22 6 12 1014.6 1014.6 0.0
22/08:30pm 25.7 28.0 21.4 77 2.8 NNE 11 24 6 13 1014.4 1014.4 0.0
22/08:00pm 25.8 28.0 21.2 76 3.0 NNE 11 20 6 11 1014.1 1014.1 0.0
22/07:30pm 25.9 27.8 21.3 76 3.0 NE 13 22 7 12 1013.7 1013.7 0.0
22/07:00pm 26.1 28.0 21.3 75 3.2 NNE 13 26 7 14 1013.3 1013.3 0.0
22/06:30pm 26.3 28.2 21.3 74 3.3 NNE 13 30 7 16 1012.7 1012.7 0.0
22/06:00pm 26.7 28.8 21.7 74 3.3 NNE 13 28 7 15 1012.3 1012.3 0.0
22/05:30pm 27.0 29.5 21.7 73 3.5 NE 11 20 6 11 1012.1 1012.1 0.0
22/05:00pm 27.5 30.5 22.0 72 3.7 NNE 9 19 5 10 1011.9 1011.9 0.0
22/04:30pm 27.9 29.9 22.2 71 3.8 NE 15 30 8 16 1011.5 1011.5 0.0
22/04:00pm 28.8 30.9 22.5 68 4.3 NE 15 24 8 13 1011.4 1011.4 0.0
22/03:30pm 29.0 31.0 22.2 66 4.6 NE 15 30 8 16 1011.5 1011.5 0.0
22/03:00pm 29.1 31.1 22.3 66 4.6 NE 15 33 8 18 1011.6 1011.6 0.0
22/02:30pm 29.1 30.8 22.3 66 4.6 NE 17 33 9 18 1012.0 1012.0 0.0
22/02:00pm 29.8 32.3 22.5 65 5.0 NNE 13 22 7 12 1012.3 1012.3 0.0
22/01:30pm 29.9 32.6 22.9 66 4.8 NE 13 24 7 13 1012.5 1012.5 0.0
22/01:00pm 29.4 31.8 22.9 68 4.4 NE 15 32 8 17 1012.7 1012.7 0.0
22/12:30pm 29.7 32.1 22.9 67 4.6 ENE 15 24 8 13 1013.0 1013.0 0.0
22/12:00pm 29.8 31.8 23.0 67 4.7 ENE 17 28 9 15 1013.3 1013.3 0.0
22/11:30am 30.2 32.9 22.9 65 5.0 ENE 13 24 7 13 1013.7 1013.7 0.0
22/11:00am 30.4 33.0 22.6 63 5.3 NE 13 20 7 11 1014.0 1014.0 0.0
22/10:30am 30.6 33.6 22.7 62 5.4 NE 11 19 6 10 1014.3 1014.3 0.0
22/10:00am 31.3 34.8 21.8 57 6.4 NE 6 11 3 6 1014.4 1014.4 0.0
22/09:30am 30.4 33.6 21.2 58 6.2 NNE 6 11 3 6 1014.8 1014.8 0.0
22/09:00am 29.6 32.9 20.7 58 5.9 NNW 4 9 2 5 1014.8 1014.8 0.0
22/08:30am 28.5 31.5 20.8 63 5.1 N 6 9 3 5 1014.9 1014.9 0.0
22/08:00am 28.0 30.9 20.6 64 4.9 NNE 6 13 3 7 1015.1 1015.1 0.0
22/07:30am 27.1 30.3 21.2 70 3.9 N 6 11 3 6 1015.1 1015.1 0.0
22/07:00am 25.8 29.1 20.8 74 3.3 N 4 9 2 5 1015.2 1015.2 0.0
22/06:30am 25.2 28.4 21.3 79 2.6 N 6 9 3 5 1014.7 1014.7 0.0
22/06:00am 24.7 28.6 21.2 81 2.3 N 2 11 1 6 1014.2 1014.2 0.0
22/05:30am 24.4 27.4 20.9 81 2.3 N 6 9 3 5 1014.0 1014.0 0.0
22/05:00am 24.4 27.4 20.9 81 2.3 N 6 11 3 6 1013.7 1013.7 0.0
22/04:30am 24.4 27.7 20.7 80 2.4 N 4 11 2 6 1013.2 1013.2 0.0
22/04:00am 24.4 27.2 20.5 79 2.5 N 6 11 3 6 1012.9 1012.9 0.0
22/03:30am 24.6 27.4 20.5 78 2.7 N 6 13 3 7 1012.5 1012.5 0.0
22/03:00am 24.7 27.5 20.4 77 2.8 NNE 6 15 3 8 1012.2 1012.2 0.0
22/02:30am 24.8 27.6 20.5 77 2.8 N 6 15 3 8 1012.1 1012.1 0.0
22/02:00am 25.0 27.8 20.5 76 2.9 NNW 6 11 3 6 1012.0 1012.0 0.0
22/01:30am 25.0 27.3 20.7 77 2.8 NNE 9 15 5 8 1011.3 1011.3 0.0
22/01:00am 25.1 28.2 21.0 78 2.7 NNE 6 11 3 6 1011.7 1011.7 0.0
22/12:30am 25.3 28.3 21.2 78 2.7 N 7 15 4 8 1012.4 1012.4 0.0
22/12:00am 25.4 28.7 21.5 79 2.6 N 6 15 3 8 1012.5 1012.5 0.0
 
Date/Time
EST
Tmp

°C
App
Tmp
°C
Dew
Point
°C
Rel
Hum
%
Delta-T

°C
Wind Press
QNH
hPa
Press
MSL
hPa
Rain
since
9 am
mm
Dir
 
Spd
km/h
Gust
km/h
Spd
kts
Gust
kts
21/11:30pm 25.4 28.7 21.9 81 2.3 NNE 7 17 4 9 1012.3 1012.3 0.0
21/11:00pm 25.5 29.0 21.8 80 2.5 N 6 15 3 8 1012.9 1012.9 0.0
21/10:30pm 25.6 29.1 21.9 80 2.5 N 6 15 3 8 1013.3 1013.3 0.0
21/10:00pm 25.7 29.4 22.2 81 2.3 N 6 13 3 7 1013.5 1013.5 0.0
21/09:30pm 25.6 29.2 22.3 82 2.2 N 7 15 4 8 1013.2 1013.2 0.0
21/09:00pm 25.7 28.9 22.4 82 2.2 NNE 9 17 5 9 1013.4 1013.4 0.0
21/08:30pm 25.7 29.3 22.4 82 2.2 N 7 17 4 9 1012.4 1012.4 0.0
21/08:00pm 25.7 28.7 22.0 80 2.5 N 9 19 5 10 1012.1 1012.1 0.0
21/07:30pm 25.9 29.0 22.2 80 2.5 N 9 19 5 10 1012.4 1012.4 0.0
21/07:00pm 26.0 29.1 22.1 79 2.6 NNE 9 20 5 11 1012.1 1012.1 0.0
21/06:30pm 26.1 28.4 22.0 78 2.7 NNE 13 26 7 14 1011.7 1011.7 0.0
21/06:00pm 26.5 28.7 21.9 76 3.1 NNE 13 30 7 16 1011.5 1011.5 0.0
21/05:30pm 26.9 29.1 21.9 74 3.3 NNE 13 32 7 17 1011.0 1011.0 0.0
21/05:00pm 27.4 29.3 22.1 73 3.6 NNE 15 32 8 17 1010.8 1010.8 0.0
21/04:30pm 27.8 29.7 22.1 71 3.8 NNE 15 32 8 17 1010.6 1010.6 0.0
21/04:00pm 28.0 30.0 22.2 70 3.9 NE 15 28 8 15 1011.0 1011.0 0.0
21/03:30pm 28.2 30.1 22.0 69 4.2 NNE 15 32 8 17 1011.1 1011.1 0.0
21/03:00pm 28.9 31.3 22.2 67 4.5 NE 13 37 7 20 1011.1 1011.1 0.0
21/02:30pm 28.9 31.1 21.9 66 4.7 NNE 13 28 7 15 1011.3 1011.3 0.0
21/02:00pm 29.3 31.8 21.8 64 5.0 NNE 11 22 6 12 1011.7 1011.7 0.0
21/01:30pm 28.9 30.5 21.4 64 5.0 NNE 15 28 8 15 1012.1 1012.1 0.0
21/01:00pm 29.0 30.9 22.0 66 4.7 NE 15 28 8 15 1012.4 1012.4 0.0
21/12:30pm 29.1 30.9 21.8 64 4.9 NNE 15 33 8 18 1013.0 1013.0 0.0
21/12:00pm 29.2 31.3 21.7 64 5.0 NE 13 28 7 15 1013.5 1013.5 0.0
21/11:30am 29.9 33.1 23.1 67 4.7 NE 11 22 6 12 1014.0 1014.0 0.0
21/11:00am 29.5 32.0 22.5 66 4.8 ENE 13 20 7 11 1014.3 1014.3 0.0
21/10:30am 29.1 31.4 22.1 66 4.7 ENE 13 22 7 12 1014.6 1014.6 0.0
21/10:00am 28.7 30.5 21.2 64 5.0 ENE 13 22 7 12 1015.0 1015.0 0.0
21/09:30am 29.8 32.2 20.1 56 6.4 N 7 19 4 10 1015.3 1015.3 0.0
21/09:00am 28.4 31.0 20.4 62 5.3 NNW 7 13 4 7 1015.6 1015.6 0.0
21/08:30am 26.8 29.1 19.9 66 4.5 N 7 13 4 7 1015.8 1015.8 0.0
21/08:00am 26.9 29.2 20.7 69 4.1 NNW 9 19 5 10 1016.0 1016.0 0.0
21/07:30am 25.9 28.6 20.7 73 3.4 NNW 7 19 4 10 1016.0 1016.0 0.0

Latest Capital City Observations: Canberra | Sydney | Melbourne | Brisbane | Adelaide | Perth | Hobart | Darwin

Other Formats:

Comma delimited format used in spreadsheet applications
http://www.bom.gov.au/fwo/IDQ60901/IDQ60901.94576.axf

JavaScript Object Notation format (JSON) in row-major order
http://www.bom.gov.au/fwo/IDQ60901/IDQ60901.94576.json